createdAt,value
2023-04-05T00:00:35.315Z,0.40
2023-04-05T00:04:38.612Z,0.30
2023-04-05T00:08:41.202Z,0.30
2023-04-05T00:12:43.087Z,0.40
2023-04-05T00:16:45.287Z,0.10
2023-04-05T00:20:50.714Z,0.00
2023-04-05T00:24:52.651Z,-0.40
2023-04-05T00:28:54.637Z,-0.40
2023-04-05T00:32:57.004Z,-0.70
2023-04-05T00:36:59.442Z,-0.40
2023-04-05T00:41:01.745Z,-0.40
2023-04-05T00:45:03.751Z,-0.30
2023-04-05T00:49:05.997Z,-0.30
2023-04-05T00:53:08.057Z,-1.10
2023-04-05T00:57:11.089Z,-0.60
2023-04-05T01:01:22.418Z,-0.20
2023-04-05T01:06:00.240Z,-0.60
2023-04-05T01:10:05.478Z,-0.50
2023-04-05T01:14:07.806Z,-0.40
2023-04-05T01:18:11.310Z,-0.60
2023-04-05T01:22:54.604Z,-0.70
2023-04-05T01:27:14.470Z,-0.60
2023-04-05T01:31:35.954Z,-0.60
2023-04-05T01:35:42.428Z,-0.50
2023-04-05T01:39:47.530Z,-0.20
2023-04-05T01:43:49.547Z,-0.60
2023-04-05T01:47:51.613Z,-0.60
2023-04-05T01:51:54.903Z,-0.40
2023-04-05T01:56:03.475Z,-0.40
2023-04-05T02:00:05.780Z,-0.20
2023-04-05T02:04:14.668Z,-0.40
2023-04-05T02:08:16.640Z,-0.40
2023-04-05T02:12:18.622Z,-0.40
2023-04-05T02:16:20.517Z,-0.40
2023-04-05T02:20:22.403Z,-0.40
2023-04-05T02:24:24.331Z,-0.80
2023-04-05T02:28:26.649Z,-1.00
2023-04-05T02:32:29.136Z,-1.00
2023-04-05T02:36:31.100Z,-0.80
2023-04-05T02:40:33.436Z,-0.80
2023-04-05T02:44:35.393Z,-0.70
2023-04-05T02:48:38.302Z,-0.60
2023-04-05T02:52:41.259Z,-0.60
2023-04-05T02:56:43.434Z,-0.60
2023-04-05T03:00:54.517Z,-0.90
2023-04-05T03:05:07.736Z,-1.10
2023-04-05T03:09:11.054Z,-1.10
2023-04-05T03:13:14.784Z,-1.00
2023-04-05T03:17:17.640Z,-0.80
2023-04-05T03:21:27.198Z,-0.80
2023-04-05T03:25:38.907Z,-1.10
2023-04-05T03:29:42.989Z,-1.00
2023-04-05T03:33:51.375Z,-1.00
2023-04-05T03:37:53.818Z,-1.10
2023-04-05T03:41:56.899Z,-1.10
2023-04-05T03:45:58.888Z,-1.10
2023-04-05T03:50:04.787Z,-1.00
2023-04-05T03:54:07.149Z,-1.00
2023-04-05T03:58:11.634Z,-0.90
2023-04-05T04:02:14.647Z,-1.10
2023-04-05T04:06:19.387Z,-1.30
2023-04-05T04:10:21.947Z,-1.50
2023-04-05T04:14:27.143Z,-1.30
2023-04-05T04:18:31.972Z,-1.30
2023-04-05T04:22:54.029Z,-1.40
2023-04-05T04:27:32.121Z,-1.20
2023-04-05T04:32:01.111Z,-1.30
2023-04-05T04:36:39.310Z,-1.30
2023-04-05T04:41:07.366Z,-1.10
2023-04-05T04:45:21.038Z,-1.30
2023-04-05T04:49:41.625Z,-1.30
2023-04-05T04:53:43.564Z,-1.40
2023-04-05T04:57:45.524Z,-1.60
2023-04-05T05:01:47.341Z,-2.00
2023-04-05T05:05:51.090Z,-2.20
2023-04-05T05:09:57.069Z,-2.00
2023-04-05T05:13:59.285Z,-1.80
2023-04-05T05:18:03.359Z,-1.80
2023-04-05T05:22:06.490Z,-2.00
2023-04-05T05:26:08.445Z,-1.80
2023-04-05T05:30:11.111Z,-1.60
2023-04-05T05:34:13.094Z,-1.50
2023-04-05T05:38:18.979Z,-1.70
2023-04-05T05:42:21.506Z,-1.90
2023-04-05T05:46:23.618Z,-1.90
2023-04-05T05:50:25.669Z,-1.80
2023-04-05T05:54:27.688Z,-1.70
2023-04-05T05:58:29.871Z,-1.70
2023-04-05T06:02:32.506Z,-1.60
2023-04-05T06:06:37.676Z,-1.60
2023-04-05T06:10:40.116Z,-1.70
2023-04-05T06:14:42.376Z,-1.50
2023-04-05T06:18:44.668Z,-1.70
2023-04-05T06:22:46.679Z,-1.40
2023-04-05T06:26:49.870Z,-1.20
2023-04-05T06:30:52.051Z,-1.70
2023-04-05T06:34:54.187Z,-2.00
2023-04-05T06:38:56.181Z,-1.60
2023-04-05T06:42:58.492Z,-1.90
2023-04-05T06:47:04.952Z,-1.50
2023-04-05T06:51:07.135Z,-1.40
2023-04-05T06:55:09.361Z,-1.40
2023-04-05T06:59:11.440Z,-1.10
2023-04-05T07:03:13.649Z,-0.80
2023-04-05T07:07:15.516Z,-0.50
2023-04-05T07:11:17.535Z,0.10
2023-04-05T07:15:19.531Z,-0.20
2023-04-05T07:19:21.444Z,-0.80
2023-04-05T07:23:23.460Z,0.20
2023-04-05T07:27:25.542Z,0.80
2023-04-05T07:31:27.436Z,0.60
2023-04-05T07:35:29.815Z,0.30
2023-04-05T07:39:31.836Z,0.50
2023-04-05T07:43:33.684Z,0.00
2023-04-05T07:47:36.007Z,0.80
2023-04-05T07:51:38.539Z,1.50
2023-04-05T07:55:41.386Z,1.50
2023-04-05T07:59:43.481Z,1.80
2023-04-05T08:03:45.561Z,1.90
2023-04-05T08:07:48.788Z,2.10
2023-04-05T08:11:50.797Z,2.30
2023-04-05T08:15:56.585Z,1.90
2023-04-05T08:19:58.450Z,2.20
2023-04-05T08:24:00.733Z,2.30
2023-04-05T08:28:02.861Z,2.00
2023-04-05T08:32:05.163Z,1.80
2023-04-05T08:36:09.581Z,2.20
2023-04-05T08:40:12.468Z,1.60
2023-04-05T08:44:15.877Z,2.20
2023-04-05T08:48:18.301Z,2.20
2023-04-05T08:52:20.368Z,2.10
2023-04-05T08:56:27.117Z,2.50
2023-04-05T09:00:29.320Z,3.00
2023-04-05T09:04:39.502Z,3.00
2023-04-05T09:08:41.743Z,2.90
2023-04-05T09:12:43.875Z,3.00
2023-04-05T09:16:46.200Z,3.20
2023-04-05T09:20:48.209Z,2.10
2023-04-05T09:24:50.373Z,2.20
2023-04-05T09:28:56.382Z,3.00
2023-04-05T09:32:58.576Z,3.20
2023-04-05T09:37:01.283Z,2.90
2023-04-05T09:41:09.467Z,2.60
2023-04-05T09:45:12.017Z,3.00
2023-04-05T09:49:34.087Z,2.80
2023-04-05T09:53:36.182Z,2.60
2023-04-05T09:57:39.667Z,2.50
2023-04-05T10:01:44.819Z,3.10
2023-04-05T10:05:47.957Z,3.00
2023-04-05T10:09:50.217Z,3.30
2023-04-05T10:13:52.121Z,1.70
2023-04-05T10:18:08.992Z,2.90
2023-04-05T10:22:17.643Z,2.00
2023-04-05T10:26:43.528Z,2.30
2023-04-05T10:30:51.282Z,2.60
2023-04-05T10:35:07.279Z,3.00
2023-04-05T10:39:21.120Z,3.40
2023-04-05T10:43:26.716Z,3.70
2023-04-05T10:47:30.859Z,4.00
2023-04-05T10:51:34.860Z,3.90
2023-04-05T10:55:36.978Z,4.20
2023-04-05T10:59:45.385Z,4.20
2023-04-05T11:03:51.810Z,4.40
2023-04-05T11:07:56.499Z,4.00
2023-04-05T11:11:58.680Z,3.20
2023-04-05T11:16:09.991Z,3.50
2023-04-05T11:20:12.287Z,4.10
2023-04-05T11:24:18.906Z,3.70
2023-04-05T11:28:37.743Z,3.60
2023-04-05T11:32:43.941Z,3.50
2023-04-05T11:36:48.733Z,3.60
2023-04-05T11:40:51.598Z,4.40
2023-04-05T11:44:53.667Z,4.10
2023-04-05T11:48:57.328Z,4.20
2023-04-05T11:53:12.892Z,4.00
2023-04-05T11:57:23.459Z,4.00
2023-04-05T12:01:25.402Z,4.60
2023-04-05T12:05:27.407Z,4.40
2023-04-05T12:09:29.575Z,3.50
2023-04-05T12:13:35.570Z,4.10
2023-04-05T12:17:44.240Z,5.10
2023-04-05T12:21:46.448Z,5.00
2023-04-05T12:25:49.315Z,4.60
2023-04-05T12:30:07.582Z,4.40
2023-04-05T12:34:10.846Z,4.50
2023-04-05T12:38:15.793Z,5.10
2023-04-05T12:42:18.101Z,5.60
2023-04-05T12:46:20.287Z,5.70
2023-04-05T12:50:27.874Z,4.70
2023-04-05T12:54:31.703Z,4.40
2023-04-05T12:58:37.833Z,4.50
2023-04-05T13:02:39.835Z,4.90
2023-04-05T13:06:41.706Z,5.30
2023-04-05T13:10:44.795Z,5.40
2023-04-05T13:14:46.667Z,5.20
2023-04-05T13:18:48.596Z,5.60
2023-04-05T13:22:50.730Z,5.50
2023-04-05T13:26:52.680Z,5.50
2023-04-05T13:30:54.740Z,4.90
2023-04-05T13:34:56.720Z,4.60
2023-04-05T13:38:58.726Z,5.10
2023-04-05T13:43:01.138Z,4.50
2023-04-05T13:47:03.082Z,5.20
2023-04-05T13:51:04.990Z,4.90
2023-04-05T13:55:07.210Z,5.30
2023-04-05T13:59:09.286Z,5.30
2023-04-05T14:03:11.633Z,4.90
2023-04-05T14:07:13.664Z,5.30
2023-04-05T14:11:15.493Z,5.60
2023-04-05T14:15:17.717Z,5.90
2023-04-05T14:19:19.740Z,4.70
2023-04-05T14:23:22.166Z,5.50
2023-04-05T14:27:27.062Z,5.80
2023-04-05T14:31:29.348Z,5.60
2023-04-05T14:35:31.480Z,5.80
2023-04-05T14:39:33.532Z,6.30
2023-04-05T14:43:35.741Z,6.00
2023-04-05T14:47:38.298Z,5.50
2023-04-05T14:51:40.654Z,5.70
2023-04-05T14:55:42.688Z,5.90
2023-04-05T14:59:44.776Z,6.10
2023-04-05T15:03:48.334Z,5.60
2023-04-05T15:07:50.716Z,5.70
2023-04-05T15:11:54.496Z,6.10
2023-04-05T15:15:57.584Z,6.30
2023-04-05T15:19:59.632Z,5.10
2023-04-05T15:24:02.440Z,5.70
2023-04-05T15:28:07.069Z,6.10
2023-04-05T15:32:09.226Z,6.00
2023-04-05T15:36:11.272Z,5.50
2023-04-05T15:40:13.335Z,5.70
2023-04-05T15:44:15.734Z,6.20
2023-04-05T15:48:17.933Z,6.10
2023-04-05T15:52:19.972Z,6.30
2023-04-05T15:56:22.013Z,6.00
2023-04-05T16:00:23.978Z,6.10
2023-04-05T16:04:27.897Z,6.20
2023-04-05T16:08:29.868Z,6.20
2023-04-05T16:12:31.931Z,5.90
2023-04-05T16:16:42.092Z,6.20
2023-04-05T16:20:56.244Z,5.80
2023-04-05T16:24:58.359Z,5.90
2023-04-05T16:29:00.760Z,6.30
2023-04-05T16:33:03.416Z,6.10
2023-04-05T16:37:05.462Z,6.10
2023-04-05T16:41:07.353Z,6.40
2023-04-05T16:45:09.940Z,6.40
2023-04-05T16:49:11.999Z,6.30
2023-04-05T16:53:15.218Z,6.40
2023-04-05T16:57:17.338Z,6.40
2023-04-05T17:01:19.382Z,6.50
2023-04-05T17:05:21.746Z,6.50
2023-04-05T17:09:27.733Z,6.50
2023-04-05T17:13:29.923Z,6.50
2023-04-05T17:17:32.093Z,6.40
2023-04-05T17:21:35.558Z,6.40
2023-04-05T17:25:37.607Z,6.20
2023-04-05T17:29:40.026Z,6.30
2023-04-05T17:33:42.122Z,6.10
2023-04-05T17:37:44.309Z,6.10
2023-04-05T17:41:46.489Z,6.00
2023-04-05T17:45:48.461Z,5.90
2023-04-05T17:49:50.705Z,5.90
2023-04-05T17:53:53.004Z,5.80
2023-04-05T17:57:55.233Z,5.70
2023-04-05T18:01:57.788Z,5.60
2023-04-05T18:05:59.772Z,5.50
2023-04-05T18:10:01.846Z,5.40
2023-04-05T18:14:04.152Z,5.20
2023-04-05T18:18:07.055Z,5.10
2023-04-05T18:22:09.215Z,5.00
2023-04-05T18:26:13.645Z,4.90
2023-04-05T18:30:16.119Z,4.80
2023-04-05T18:34:18.358Z,4.60
2023-04-05T18:38:21.421Z,4.50
2023-04-05T18:42:23.575Z,4.40
2023-04-05T18:46:25.858Z,4.30
2023-04-05T18:50:28.181Z,4.10
2023-04-05T18:54:30.374Z,3.80
2023-04-05T18:58:32.567Z,3.80
2023-04-05T19:02:34.749Z,3.70
2023-04-05T19:06:36.965Z,3.60
2023-04-05T19:10:39.942Z,3.60
2023-04-05T19:14:44.823Z,3.50
2023-04-05T19:18:46.988Z,3.50
2023-04-05T19:22:48.979Z,3.20
2023-04-05T19:26:51.229Z,3.10
2023-04-05T19:30:54.175Z,3.10
2023-04-05T19:34:59.516Z,2.90
2023-04-05T19:39:03.718Z,2.80
2023-04-05T19:43:05.900Z,2.80
2023-04-05T19:47:11.036Z,2.80
2023-04-05T19:51:15.509Z,2.60
2023-04-05T19:55:38.365Z,2.30
2023-04-05T19:59:41.443Z,2.30
2023-04-05T20:03:43.763Z,2.30
2023-04-05T20:07:45.977Z,2.10
2023-04-05T20:11:54.341Z,2.00
2023-04-05T20:15:56.789Z,2.10
2023-04-05T20:20:01.099Z,2.20
2023-04-05T20:24:07.246Z,2.00
2023-04-05T20:28:35.387Z,1.90
2023-04-05T20:32:37.876Z,1.80
2023-04-05T20:36:50.924Z,1.70
2023-04-05T20:40:52.883Z,1.80
2023-04-05T20:44:54.723Z,1.80
2023-04-05T20:48:58.161Z,1.90
2023-04-05T20:53:03.336Z,1.90
2023-04-05T20:57:05.594Z,1.80
2023-04-05T21:01:08.624Z,1.80
2023-04-05T21:05:10.720Z,1.70
2023-04-05T21:09:12.733Z,1.80
2023-04-05T21:13:14.881Z,1.60
2023-04-05T21:17:17.076Z,1.40
2023-04-05T21:21:19.234Z,1.40
2023-04-05T21:25:21.514Z,1.40
2023-04-05T21:29:23.518Z,1.20
2023-04-05T21:33:25.786Z,1.10
2023-04-05T21:37:27.835Z,1.00
2023-04-05T21:41:29.816Z,1.00
2023-04-05T21:45:31.741Z,1.10
2023-04-05T21:49:33.784Z,1.20
2023-04-05T21:53:36.003Z,1.20
2023-04-05T21:57:38.081Z,1.20
2023-04-05T22:01:40.280Z,1.20
2023-04-05T22:05:42.186Z,1.10
2023-04-05T22:09:44.522Z,1.10
2023-04-05T22:13:46.587Z,1.10
2023-04-05T22:17:48.504Z,1.00
2023-04-05T22:21:50.753Z,1.10
2023-04-05T22:25:53.337Z,1.10
2023-04-05T22:29:56.584Z,1.00
2023-04-05T22:33:58.794Z,1.00
2023-04-05T22:38:00.728Z,1.00
2023-04-05T22:42:02.647Z,1.00
2023-04-05T22:46:04.720Z,1.00
2023-04-05T22:50:07.302Z,1.10
2023-04-05T22:54:09.225Z,0.90
2023-04-05T22:58:11.517Z,0.90
2023-04-05T23:02:13.450Z,0.90
2023-04-05T23:06:15.952Z,0.90
2023-04-05T23:10:18.370Z,0.90
2023-04-05T23:14:20.537Z,0.90
2023-04-05T23:18:22.940Z,0.80
2023-04-05T23:22:25.053Z,0.80
2023-04-05T23:26:27.661Z,0.70
2023-04-05T23:30:29.804Z,0.60
2023-04-05T23:34:31.688Z,0.50
2023-04-05T23:38:33.521Z,0.50
2023-04-05T23:42:35.386Z,0.50
2023-04-05T23:46:37.427Z,0.50
2023-04-05T23:50:39.491Z,0.30
2023-04-05T23:54:48.117Z,0.30
2023-04-05T23:58:50.384Z,0.30
